Time;durP1;ratioP1;P1;durP2;ratioP2;P2;SDS_P1;SDS_P2;PMS_P1;PMS_P2;Temp;Humidity;BMP_temperature;BMP_pressure;BME280_temperature;BME280_humidity;BME280_pressure;Samples;Min_cycle;Max_cycle;Signal;HPM_P1;HPM_P2
2022/11/19 00:00:53;;;;;;;4.57;3.60;;;6.10;99.90;;;;;;5123774;27;20413;-35
2022/11/19 00:03:21;;;;;;;3.87;3.47;;;6.20;99.90;;;;;;5122516;27;20475;-35
2022/11/19 00:05:49;;;;;;;5.20;3.80;;;6.10;99.90;;;;;;5127317;27;20527;-35
2022/11/19 00:08:17;;;;;;;5.00;4.07;;;6.10;99.90;;;;;;5110663;28;20406;-35
2022/11/19 00:10:46;;;;;;;5.43;4.30;;;6.10;99.90;;;;;;5117825;27;20466;-35
2022/11/19 00:13:13;;;;;;;4.80;3.93;;;6.10;99.90;;;;;;5124778;27;20405;-35
2022/11/19 00:15:40;;;;;;;6.27;4.63;;;6.00;99.90;;;;;;5123561;27;20461;-35
2022/11/19 00:18:06;;;;;;;5.37;4.63;;;5.90;99.90;;;;;;5107648;28;20409;-35
2022/11/19 00:20:33;;;;;;;6.63;4.80;;;5.90;99.90;;;;;;5110023;28;20516;-35
2022/11/19 00:22:59;;;;;;;4.50;3.80;;;6.00;99.90;;;;;;5110157;28;20406;-35
2022/11/19 00:25:27;;;;;;;5.00;4.50;;;5.90;99.90;;;;;;5095452;28;20434;-35
2022/11/19 00:27:55;;;;;;;6.67;4.70;;;5.80;99.90;;;;;;5089785;28;20837;-35
2022/11/19 00:30:21;;;;;;;4.97;4.40;;;6.10;99.90;;;;;;5089828;28;20426;-35
2022/11/19 00:32:47;;;;;;;6.27;5.00;;;5.90;99.90;;;;;;5093978;28;20417;-35
2022/11/19 00:35:13;;;;;;;7.33;5.33;;;5.90;99.90;;;;;;5110295;28;20289;-35
2022/11/19 00:37:38;;;;;;;7.87;5.80;;;5.80;99.90;;;;;;5110210;28;20619;-35
2022/11/19 00:40:06;;;;;;;6.50;4.80;;;5.70;99.90;;;;;;5109989;28;20418;-35
2022/11/19 00:42:32;;;;;;;6.20;5.47;;;6.00;99.90;;;;;;5109843;28;20643;-35
2022/11/19 00:44:58;;;;;;;6.93;5.53;;;5.80;99.90;;;;;;5114013;28;20449;-35
2022/11/19 00:47:24;;;;;;;6.33;5.00;;;5.90;99.90;;;;;;5114499;28;20439;-36
2022/11/19 00:49:50;;;;;;;7.50;5.30;;;5.70;99.90;;;;;;5108774;28;20429;-35
2022/11/19 00:52:16;;;;;;;6.93;5.00;;;5.80;99.90;;;;;;5093944;28;20229;-35
2022/11/19 00:54:41;;;;;;;8.63;5.60;;;5.70;99.90;;;;;;5093622;28;20180;-35
2022/11/19 00:57:07;;;;;;;8.23;6.40;;;6.10;99.90;;;;;;5093809;28;20931;-35
2022/11/19 00:59:33;;;;;;;7.20;6.07;;;5.90;99.90;;;;;;5093556;28;20208;-36
2022/11/19 01:01:58;;;;;;;8.10;5.87;;;6.10;99.90;;;;;;5093925;28;20550;-35
2022/11/19 01:04:24;;;;;;;7.90;6.30;;;5.70;99.90;;;;;;5093389;28;21036;-35
2022/11/19 01:06:50;;;;;;;8.17;6.53;;;6.00;99.90;;;;;;5093711;28;20188;-36
2022/11/19 01:09:16;;;;;;;7.97;6.73;;;5.70;99.90;;;;;;5093162;28;20184;-35
2022/11/19 01:11:41;;;;;;;7.63;6.30;;;5.80;99.90;;;;;;5093596;28;20177;-34
2022/11/19 01:14:07;;;;;;;8.67;7.07;;;5.60;99.90;;;;;;5093149;28;20184;-35
2022/11/19 01:16:36;;;;;;;9.47;6.70;;;5.60;99.90;;;;;;5093712;28;20457;-35
2022/11/19 01:19:03;;;;;;;10.27;7.37;;;5.50;99.90;;;;;;5093099;28;20412;-36
2022/11/19 01:21:31;;;;;;;8.90;7.13;;;5.40;99.90;;;;;;5093339;28;20422;-35
2022/11/19 01:23:58;;;;;;;11.03;7.73;;;5.40;99.90;;;;;;5097810;28;20465;-35
2022/11/19 01:26:24;;;;;;;10.13;7.60;;;5.40;99.90;;;;;;5113550;28;20420;-35
2022/11/19 01:28:50;;;;;;;8.60;7.10;;;5.60;99.90;;;;;;5113528;28;20439;-35
2022/11/19 01:31:22;;;;;;;11.70;7.50;;;5.40;99.90;;;;;;5113473;28;20410;-35
2022/11/19 01:33:48;;;;;;;11.27;7.80;;;5.40;99.90;;;;;;5112285;28;20417;-35
2022/11/19 01:36:16;;;;;;;9.93;7.77;;;5.40;99.90;;;;;;5113309;28;20409;-35
2022/11/19 01:38:42;;;;;;;9.17;7.33;;;5.40;99.90;;;;;;5112954;28;20502;-35
2022/11/19 01:41:08;;;;;;;13.10;9.10;;;5.60;99.90;;;;;;5113537;28;20401;-34
2022/11/19 01:43:41;;;;;;;13.10;8.53;;;5.30;99.90;;;;;;5113113;28;20452;-35
2022/11/19 01:46:09;;;;;;;12.50;9.17;;;5.30;99.90;;;;;;5113087;28;20452;-35
2022/11/19 01:48:56;;;;;;;13.80;9.60;;;5.40;99.90;;;;;;5112987;28;20507;-35
2022/11/19 01:51:28;;;;;;;12.17;9.50;;;5.20;99.90;;;;;;5112730;28;20414;-35
2022/11/19 01:53:58;;;;;;;18.53;11.00;;;5.30;99.90;;;;;;5112808;28;20413;-35
2022/11/19 01:56:25;;;;;;;14.20;10.83;;;5.30;99.90;;;;;;5112118;28;20413;-35
2022/11/19 01:59:02;;;;;;;15.40;11.10;;;5.20;99.90;;;;;;5112589;28;20517;-35
2022/11/19 02:01:31;;;;;;;14.10;9.97;;;5.40;99.90;;;;;;5112996;28;20899;-35
2022/11/19 02:04:00;;;;;;;13.00;10.33;;;5.10;99.90;;;;;;5112471;28;20564;-34
2022/11/19 02:06:30;;;;;;;18.73;12.33;;;5.20;99.90;;;;;;5111534;28;20441;-35
2022/11/19 02:08:56;;;;;;;15.87;11.00;;;5.00;99.90;;;;;;5112447;28;20795;-35
2022/11/19 02:11:53;;;;;;;17.23;12.47;;;5.10;99.90;;;;;;5112843;28;20497;-35
2022/11/19 02:14:32;;;;;;;16.13;11.40;;;5.00;99.90;;;;;;5112271;28;20409;-35
2022/11/19 02:17:16;;;;;;;17.40;12.63;;;4.80;99.90;;;;;;5112793;28;20416;-35
2022/11/19 02:20:16;;;;;;;17.40;11.97;;;4.80;99.90;;;;;;5112211;28;20960;-35
2022/11/19 02:23:02;;;;;;;16.27;12.97;;;4.70;99.90;;;;;;5112370;28;20413;-35
2022/11/19 02:25:49;;;;;;;18.47;13.03;;;4.70;99.90;;;;;;5094914;28;20501;-35
2022/11/19 02:28:37;;;;;;;20.33;13.67;;;4.80;99.90;;;;;;5092078;28;20398;-36
2022/11/19 02:31:08;;;;;;;20.33;13.90;;;5.00;99.90;;;;;;5092114;28;20413;-35
2022/11/19 02:34:01;;;;;;;19.07;13.10;;;5.00;99.90;;;;;;5090820;28;20768;-35
2022/11/19 02:36:29;;;;;;;20.10;14.03;;;4.90;99.90;;;;;;5091852;28;20445;-35
2022/11/19 02:39:10;;;;;;;20.47;14.67;;;4.90;99.90;;;;;;5091600;28;20413;-35
2022/11/19 02:41:45;;;;;;;18.43;13.27;;;4.70;99.90;;;;;;5091980;28;20419;-35
2022/11/19 02:47:21;;;;;;;18.27;13.97;;;4.80;99.90;;;;;;5091630;28;20814;-35
2022/11/19 02:49:52;;;;;;;20.77;14.07;;;4.90;99.90;;;;;;5091333;28;20414;-35
2022/11/19 02:52:18;;;;;;;22.20;14.87;;;4.90;99.90;;;;;;5091481;28;20426;-34
2022/11/19 02:54:43;;;;;;;20.33;14.20;;;4.70;99.90;;;;;;5091196;28;20415;-35
2022/11/19 02:57:11;;;;;;;19.47;13.63;;;4.60;99.90;;;;;;5091477;28;20413;-35
2022/11/19 03:06:26;;;;;;;18.60;13.13;;;4.90;99.90;;;;;;5090848;28;20441;-35
2022/11/19 03:08:52;;;;;;;18.97;14.00;;;4.90;99.90;;;;;;5077400;28;20461;-35
2022/11/19 03:11:20;;;;;;;19.57;14.87;;;4.90;99.90;;;;;;5091353;28;20438;-35
2022/11/19 03:16:41;;;;;;;21.70;14.60;;;4.70;99.90;;;;;;5089799;28;20411;-35
2022/11/19 03:19:45;;;;;;;18.67;14.43;;;4.90;99.90;;;;;;5090760;28;20410;-35
2022/11/19 03:22:21;;;;;;;20.63;15.40;;;4.80;99.90;;;;;;5091143;28;20896;-35
2022/11/19 03:24:59;;;;;;;21.37;15.20;;;4.80;99.90;;;;;;5102481;28;20502;-35
2022/11/19 03:27:30;;;;;;;22.23;14.90;;;4.70;99.90;;;;;;5111319;28;20421;-35
2022/11/19 03:29:59;;;;;;;19.90;14.77;;;5.00;99.90;;;;;;5110894;28;20410;-35
2022/11/19 03:32:34;;;;;;;19.30;14.00;;;4.70;99.90;;;;;;5111163;28;20505;-35
2022/11/19 03:35:09;;;;;;;18.67;13.80;;;4.80;99.90;;;;;;5110385;28;21049;-35
2022/11/19 03:37:39;;;;;;;19.03;14.93;;;5.00;99.90;;;;;;5111087;28;20413;-35
2022/11/19 03:40:07;;;;;;;19.43;15.40;;;4.60;99.90;;;;;;5110593;28;21164;-35
2022/11/19 03:42:34;;;;;;;21.17;16.40;;;4.80;99.90;;;;;;5110968;28;20449;-35
2022/11/19 03:45:12;;;;;;;21.63;15.10;;;4.70;99.90;;;;;;5110872;27;20836;-35
2022/11/19 03:47:40;;;;;;;20.83;15.70;;;4.60;99.90;;;;;;5111123;28;20446;-35
2022/11/19 03:50:22;;;;;;;20.20;15.30;;;4.50;99.90;;;;;;5109995;28;20442;-35
2022/11/19 03:52:48;;;;;;;22.93;16.90;;;4.50;99.90;;;;;;5108175;28;20500;-35
2022/11/19 03:55:15;;;;;;;20.80;14.37;;;4.60;99.90;;;;;;5109677;28;20847;-35
2022/11/19 03:57:42;;;;;;;22.67;15.30;;;4.50;99.90;;;;;;5110823;28;20271;-35
2022/11/19 04:00:08;;;;;;;22.07;16.00;;;4.50;99.90;;;;;;5110215;28;20925;-35
2022/11/19 04:02:34;;;;;;;22.00;15.27;;;4.60;99.90;;;;;;5110404;28;20524;-35
2022/11/19 04:05:00;;;;;;;19.93;14.27;;;4.70;99.90;;;;;;5110412;28;20556;-35
2022/11/19 04:07:25;;;;;;;24.00;17.23;;;4.50;99.90;;;;;;5110756;28;20180;-35
2022/11/19 04:09:51;;;;;;;20.57;15.67;;;4.70;99.90;;;;;;5109141;28;20176;-35
2022/11/19 04:12:22;;;;;;;21.30;16.20;;;4.50;99.90;;;;;;5110428;28;20678;-35
2022/11/19 04:14:49;;;;;;;22.07;16.50;;;4.70;99.90;;;;;;5110409;28;20267;-35
2022/11/19 04:17:16;;;;;;;20.80;14.83;;;4.40;99.90;;;;;;5109921;28;20424;-35
2022/11/19 04:19:41;;;;;;;21.57;15.53;;;4.60;99.90;;;;;;5108450;28;20524;-35
2022/11/19 04:22:07;;;;;;;25.10;17.67;;;4.50;99.90;;;;;;5110329;28;20975;-35
2022/11/19 04:24:33;;;;;;;24.17;17.30;;;4.70;99.90;;;;;;5100015;28;20200;-34
2022/11/19 04:26:58;;;;;;;23.97;16.27;;;4.80;99.90;;;;;;5090096;28;20187;-35
2022/11/19 04:29:24;;;;;;;21.70;15.93;;;4.50;99.90;;;;;;5089661;28;20177;-35
2022/11/19 04:31:50;;;;;;;22.77;16.60;;;4.50;99.90;;;;;;5089914;28;20184;-35
2022/11/19 04:34:15;;;;;;;22.17;16.20;;;4.40;99.90;;;;;;5087531;28;20204;-35
2022/11/19 04:36:41;;;;;;;25.40;16.90;;;4.50;99.90;;;;;;5090067;28;20535;-36
2022/11/19 04:39:08;;;;;;;24.47;17.20;;;4.40;99.90;;;;;;5096745;28;20290;-35
2022/11/19 04:41:35;;;;;;;23.00;16.60;;;4.30;99.90;;;;;;5123551;28;20183;-35
2022/11/19 04:44:01;;;;;;;21.60;16.23;;;4.40;99.90;;;;;;5114392;28;20499;-34
2022/11/19 04:46:27;;;;;;;21.17;17.00;;;4.30;99.90;;;;;;5126781;28;20458;-36
2022/11/19 04:48:53;;;;;;;22.10;16.67;;;4.50;99.90;;;;;;5130107;27;20507;-35
2022/11/19 04:51:18;;;;;;;23.90;16.63;;;4.30;99.90;;;;;;5130588;27;20499;-35
2022/11/19 04:53:44;;;;;;;24.60;17.33;;;4.60;99.90;;;;;;5130361;27;20639;-35
2022/11/19 04:56:10;;;;;;;24.17;16.90;;;4.40;99.90;;;;;;5130680;27;20258;-35
2022/11/19 04:58:36;;;;;;;22.40;15.70;;;4.60;99.90;;;;;;5130093;27;20649;-35
2022/11/19 05:01:02;;;;;;;23.40;16.57;;;4.50;99.90;;;;;;5130626;27;20676;-35
2022/11/19 05:03:28;;;;;;;26.27;18.20;;;4.30;99.90;;;;;;5130214;27;20457;-35
2022/11/19 05:05:54;;;;;;;22.70;16.83;;;4.30;99.90;;;;;;5130417;27;20771;-35
2022/11/19 05:08:20;;;;;;;22.40;15.97;;;4.40;99.90;;;;;;5112159;28;20420;-34
2022/11/19 05:10:46;;;;;;;21.47;16.50;;;4.60;99.90;;;;;;5130172;27;20187;-35
2022/11/19 05:13:11;;;;;;;24.10;14.93;;;4.50;99.90;;;;;;5130162;27;20240;-35
2022/11/19 05:15:37;;;;;;;19.50;15.13;;;4.70;99.90;;;;;;5130485;27;20885;-35
2022/11/19 05:18:03;;;;;;;23.77;17.43;;;4.40;99.90;;;;;;5130553;27;20646;-35
2022/11/19 05:20:28;;;;;;;24.00;17.00;;;4.20;99.90;;;;;;5128890;28;20270;-35
2022/11/19 05:22:54;;;;;;;23.63;16.93;;;4.30;99.90;;;;;;5130151;27;20534;-34
2022/11/19 05:25:20;;;;;;;24.80;17.90;;;4.20;99.90;;;;;;5112243;28;20207;-35
2022/11/19 05:27:45;;;;;;;24.00;17.53;;;4.40;99.90;;;;;;5109605;28;20184;-35
2022/11/19 05:30:11;;;;;;;26.73;17.97;;;4.40;99.90;;;;;;5110322;28;20188;-35
2022/11/19 05:32:37;;;;;;;24.70;17.40;;;4.50;99.90;;;;;;5111356;28;20267;-36
2022/11/19 05:35:04;;;;;;;24.40;17.50;;;4.50;99.90;;;;;;5113255;28;20279;-35
2022/11/19 05:37:30;;;;;;;27.70;18.17;;;4.40;99.90;;;;;;5113314;28;20421;-35
2022/11/19 05:39:55;;;;;;;22.20;15.90;;;4.40;99.90;;;;;;5113258;28;20425;-35
2022/11/19 05:42:21;;;;;;;25.80;17.17;;;4.20;99.90;;;;;;5113019;28;20191;-35
2022/11/19 05:44:47;;;;;;;25.90;18.27;;;4.10;99.90;;;;;;5113253;28;20210;-35
2022/11/19 05:47:15;;;;;;;24.73;17.40;;;4.20;99.90;;;;;;5112055;28;20180;-35
2022/11/19 05:49:40;;;;;;;25.10;17.40;;;4.30;99.90;;;;;;5113017;28;20607;-35
2022/11/19 05:52:06;;;;;;;24.40;16.63;;;4.40;99.90;;;;;;5113410;28;20424;-35
2022/11/19 05:54:32;;;;;;;24.57;16.80;;;4.20;99.90;;;;;;5112683;28;20188;-35
2022/11/19 05:56:58;;;;;;;27.17;18.93;;;4.10;99.90;;;;;;5113064;28;20417;-35
2022/11/19 05:59:23;;;;;;;27.30;17.40;;;4.10;99.90;;;;;;5106638;28;20232;-35
2022/11/19 06:01:49;;;;;;;30.40;17.90;;;4.10;99.90;;;;;;5123758;27;20236;-35
2022/11/19 06:04:15;;;;;;;28.20;18.10;;;4.00;99.90;;;;;;5133264;27;20245;-35
2022/11/19 06:06:40;;;;;;;28.00;20.00;;;4.00;99.90;;;;;;5133451;27;20202;-35
2022/11/19 06:09:06;;;;;;;28.30;17.70;;;4.20;99.90;;;;;;5132835;27;20179;-35
2022/11/19 06:11:47;;;;;;;26.93;17.03;;;3.90;99.90;;;;;;5131983;27;20214;-35
2022/11/19 06:14:13;;;;;;;29.13;17.83;;;4.00;99.90;;;;;;5133025;27;20639;-35
2022/11/19 06:16:39;;;;;;;29.47;18.80;;;4.10;99.90;;;;;;5133329;27;20420;-34
2022/11/19 06:19:05;;;;;;;25.73;18.83;;;4.00;99.90;;;;;;5132967;27;20424;-35
2022/11/19 06:21:30;;;;;;;27.40;17.20;;;4.20;99.90;;;;;;5133082;27;20240;-35
2022/11/19 06:23:56;;;;;;;27.87;19.07;;;4.20;99.90;;;;;;5128027;27;20494;-35
2022/11/19 06:26:24;;;;;;;28.53;18.77;;;3.90;99.90;;;;;;5112319;28;20179;-35
2022/11/19 06:28:49;;;;;;;29.10;18.23;;;4.10;99.90;;;;;;5111899;27;20534;-35
2022/11/19 06:31:15;;;;;;;27.50;17.37;;;4.10;99.90;;;;;;5112383;28;20426;-36
2022/11/19 06:33:41;;;;;;;29.83;18.50;;;3.90;99.90;;;;;;5111199;28;20191;-35
2022/11/19 06:36:07;;;;;;;25.37;17.40;;;3.80;99.90;;;;;;5107737;28;21022;-35
2022/11/19 06:38:33;;;;;;;25.97;17.57;;;4.00;99.90;;;;;;5091511;28;20191;-35
2022/11/19 06:40:58;;;;;;;24.47;15.90;;;4.10;99.90;;;;;;5091134;28;20925;-35
2022/11/19 06:43:24;;;;;;;24.83;16.67;;;4.10;99.90;;;;;;5091598;28;20234;-35
2022/11/19 06:45:50;;;;;;;22.87;15.67;;;3.90;99.90;;;;;;5091903;28;20172;-36
2022/11/19 06:48:15;;;;;;;28.83;18.57;;;3.90;99.90;;;;;;5091664;28;20261;-35
2022/11/19 06:50:43;;;;;;;23.30;16.07;;;3.80;99.90;;;;;;5091477;28;20237;-35
2022/11/19 06:53:08;;;;;;;25.67;15.40;;;3.80;99.90;;;;;;5100180;28;20187;-35
2022/11/19 06:55:34;;;;;;;25.67;17.07;;;3.80;99.90;;;;;;5111948;28;20417;-35
2022/11/19 06:58:04;;;;;;;23.07;15.60;;;4.00;99.90;;;;;;5111964;28;20537;-35
2022/11/19 07:00:30;;;;;;;26.37;16.40;;;3.90;99.90;;;;;;5111681;28;20180;-35
2022/11/19 07:02:55;;;;;;;27.40;17.77;;;4.00;99.90;;;;;;5111647;28;20441;-35
2022/11/19 07:05:21;;;;;;;23.63;15.70;;;3.90;99.90;;;;;;5110335;28;20580;-35
2022/11/19 07:07:47;;;;;;;23.10;16.87;;;3.90;99.90;;;;;;5111587;28;20622;-35
2022/11/19 07:10:12;;;;;;;23.10;16.17;;;3.70;99.90;;;;;;5117088;27;20192;-35
2022/11/19 07:12:38;;;;;;;25.00;16.23;;;3.80;99.90;;;;;;5122483;27;20227;-35
2022/11/19 07:15:04;;;;;;;22.23;16.63;;;4.00;99.90;;;;;;5124737;27;20187;-36
2022/11/19 07:17:30;;;;;;;20.83;14.90;;;4.10;99.90;;;;;;5132362;27;20501;-35
2022/11/19 07:19:55;;;;;;;24.77;16.40;;;4.00;99.90;;;;;;5131564;27;20409;-35
2022/11/19 07:22:21;;;;;;;23.60;15.90;;;3.90;99.90;;;;;;5130493;27;20198;-35
2022/11/19 07:24:46;;;;;;;21.40;15.20;;;3.90;99.90;;;;;;5119768;27;20203;-35
2022/11/19 07:27:12;;;;;;;23.37;15.83;;;4.00;99.90;;;;;;5111444;28;20681;-35
2022/11/19 07:29:38;;;;;;;22.07;14.23;;;3.80;99.90;;;;;;5118322;27;20190;-35
2022/11/19 07:32:04;;;;;;;23.27;16.07;;;4.10;99.90;;;;;;5124546;27;20191;-35
2022/11/19 07:34:30;;;;;;;21.37;14.90;;;4.10;99.90;;;;;;5130697;27;20779;-35
2022/11/19 07:36:55;;;;;;;24.37;16.07;;;4.00;99.90;;;;;;5105268;27;20417;-34
2022/11/19 07:39:21;;;;;;;26.27;17.30;;;4.00;99.90;;;;;;5095956;28;20523;-35
2022/11/19 07:44:31;;;;;;;23.43;15.63;;;4.00;99.90;;;;;;5100170;27;20207;-35
2022/11/19 07:46:56;;;;;;;22.37;15.50;;;4.10;99.90;;;;;;5111402;27;20450;-35
2022/11/19 07:49:23;;;;;;;21.80;15.20;;;4.10;99.90;;;;;;5097721;28;20275;-35
2022/11/19 07:51:49;;;;;;;22.73;14.93;;;4.10;99.90;;;;;;5100558;28;20480;-35
2022/11/19 07:54:15;;;;;;;19.67;13.97;;;3.80;99.90;;;;;;5099942;28;20860;-35
2022/11/19 07:56:41;;;;;;;22.80;15.80;;;3.90;99.90;;;;;;5099083;28;20252;-35
2022/11/19 07:59:07;;;;;;;22.30;15.93;;;3.90;99.90;;;;;;5105147;28;20664;-35
2022/11/19 08:01:32;;;;;;;22.80;14.83;;;3.80;99.90;;;;;;5111213;28;20420;-35
2022/11/19 08:03:58;;;;;;;22.73;15.67;;;3.80;99.90;;;;;;5110397;28;20484;-35
2022/11/19 08:06:26;;;;;;;20.90;14.70;;;4.00;99.90;;;;;;5115323;27;20235;-35
2022/11/19 08:08:54;;;;;;;22.93;15.23;;;4.00;99.90;;;;;;5121240;27;20474;-35
2022/11/19 08:11:19;;;;;;;24.90;16.00;;;3.60;99.90;;;;;;5131124;27;20894;-35
2022/11/19 08:13:45;;;;;;;23.70;15.80;;;3.70;99.90;;;;;;5102484;27;20517;-35
2022/11/19 08:18:11;;;;;;;20.10;14.30;;;3.60;99.90;;;;;;5102129;28;20317;-35
2022/11/19 08:19:08;;;;;;;20.87;14.10;;;3.80;99.90;;;;;;5095100;27;20596;-35
2022/11/19 08:21:35;;;;;;;22.70;15.27;;;3.70;99.90;;;;;;5119479;27;20424;-35
2022/11/19 08:24:01;;;;;;;21.20;14.00;;;3.60;99.90;;;;;;5109980;28;20491;-35
2022/11/19 08:26:27;;;;;;;21.30;15.27;;;3.70;99.90;;;;;;5110476;28;21033;-35
2022/11/19 08:28:52;;;;;;;20.40;14.80;;;3.70;99.90;;;;;;5109880;28;20497;-35
2022/11/19 08:31:18;;;;;;;18.70;13.17;;;3.90;99.90;;;;;;5110330;28;20297;-36
2022/11/19 08:33:44;;;;;;;22.40;15.60;;;3.90;99.90;;;;;;5108692;28;20227;-35
2022/11/19 08:36:10;;;;;;;20.30;14.33;;;3.90;99.90;;;;;;5110366;28;20437;-35
2022/11/19 08:38:35;;;;;;;18.17;13.47;;;3.50;99.90;;;;;;5108742;28;20275;-35
2022/11/19 08:43:45;;;;;;;19.50;13.50;;;3.50;99.90;;;;;;5109416;28;20203;-35
2022/11/19 08:46:11;;;;;;;19.77;13.67;;;3.50;99.90;;;;;;5106955;28;20556;-36
2022/11/19 08:48:36;;;;;;;15.83;12.27;;;3.40;99.90;;;;;;5109553;28;20221;-35
2022/11/19 08:51:06;;;;;;;17.80;11.93;;;3.40;99.90;;;;;;5099068;27;20322;-35
2022/11/19 08:53:32;;;;;;;17.70;12.23;;;3.60;99.90;;;;;;5089707;28;20208;-35
2022/11/19 08:55:58;;;;;;;13.30;10.70;;;3.50;99.90;;;;;;5087926;27;20451;-35
2022/11/19 08:58:24;;;;;;;16.80;12.03;;;3.50;99.90;;;;;;5108366;28;20469;-35
2022/11/19 09:00:50;;;;;;;14.23;10.40;;;3.50;99.90;;;;;;5118282;28;20206;-35
2022/11/19 09:03:16;;;;;;;18.90;12.40;;;3.40;99.90;;;;;;5129120;27;20171;-35
2022/11/19 09:05:41;;;;;;;16.93;12.00;;;3.50;99.90;;;;;;5117355;27;20208;-35
2022/11/19 09:08:07;;;;;;;15.40;11.80;;;3.40;99.90;;;;;;5125549;27;20458;-36
2022/11/19 09:10:34;;;;;;;15.00;11.50;;;3.50;99.90;;;;;;5134257;27;20179;-35
2022/11/19 09:13:03;;;;;;;15.90;11.63;;;3.40;99.90;;;;;;5134192;27;20409;-35
2022/11/19 09:15:29;;;;;;;16.37;11.93;;;3.50;99.90;;;;;;5130478;27;20452;-35
2022/11/19 09:17:55;;;;;;;16.50;11.50;;;3.50;99.90;;;;;;5112474;27;20455;-35
2022/11/19 09:20:20;;;;;;;19.50;12.67;;;3.70;99.90;;;;;;5115360;27;20198;-35
2022/11/19 09:22:46;;;;;;;15.77;11.77;;;3.60;99.90;;;;;;5112846;27;20183;-35
2022/11/19 09:25:12;;;;;;;13.33;10.47;;;3.50;99.90;;;;;;5133189;27;20251;-35
2022/11/19 09:27:37;;;;;;;15.40;11.17;;;3.80;99.90;;;;;;5122139;27;20753;-35
2022/11/19 09:30:07;;;;;;;14.10;10.33;;;3.50;99.90;;;;;;5125355;27;20794;-35
2022/11/19 09:32:33;;;;;;;14.93;11.50;;;3.80;99.90;;;;;;5133969;27;20232;-35
2022/11/19 09:34:58;;;;;;;14.53;10.33;;;3.70;99.90;;;;;;5132507;27;20920;-35
2022/11/19 09:37:24;;;;;;;14.23;9.80;;;3.70;99.90;;;;;;5134240;27;20461;-35
2022/11/19 09:39:50;;;;;;;15.13;11.17;;;3.70;99.90;;;;;;5133685;27;20304;-35
2022/11/19 09:42:15;;;;;;;15.43;10.97;;;3.50;99.90;;;;;;5133907;27;20179;-35
2022/11/19 09:44:50;;;;;;;15.80;11.60;;;3.40;99.90;;;;;;5133659;27;20234;-35
2022/11/19 09:47:34;;;;;;;15.97;11.23;;;3.40;99.90;;;;;;5134028;27;20635;-35
2022/11/19 09:50:17;;;;;;;20.10;10.83;;;3.60;99.90;;;;;;5133488;27;20867;-36
2022/11/19 09:53:17;;;;;;;14.43;10.87;;;3.40;99.90;;;;;;5132215;27;20505;-35
2022/11/19 09:55:45;;;;;;;13.67;11.00;;;3.60;99.90;;;;;;5133732;27;20458;-35
2022/11/19 09:58:17;;;;;;;14.83;11.33;;;3.60;99.90;;;;;;5133887;27;20442;-35
2022/11/19 10:00:44;;;;;;;12.57;10.43;;;3.50;99.90;;;;;;5133052;27;20409;-35
2022/11/19 10:03:27;;;;;;;15.17;10.67;;;3.60;99.90;;;;;;5133409;27;20416;-36
2022/11/19 10:06:18;;;;;;;14.70;11.10;;;3.40;99.90;;;;;;5132262;27;20992;-35
2022/11/19 10:09:06;;;;;;;13.83;10.33;;;3.40;99.90;;;;;;5131963;27;20495;-35
2022/11/19 10:12:18;;;;;;;13.97;10.00;;;3.50;99.90;;;;;;5133299;27;20413;-36
2022/11/19 10:14:48;;;;;;;13.87;10.37;;;3.50;99.90;;;;;;5119912;27;20768;-36
2022/11/19 10:17:56;;;;;;;12.93;9.97;;;3.80;99.90;;;;;;5130937;27;21002;-35
2022/11/19 10:20:40;;;;;;;14.03;9.93;;;3.50;99.90;;;;;;5077168;28;20447;-35
2022/11/19 10:23:17;;;;;;;15.40;11.27;;;3.60;99.90;;;;;;5103344;28;20426;-36
2022/11/19 10:25:48;;;;;;;13.23;10.20;;;3.70;99.90;;;;;;5112452;27;20460;-35
2022/11/19 10:28:22;;;;;;;16.07;11.30;;;3.80;99.90;;;;;;5112513;28;20417;-35
2022/11/19 10:30:53;;;;;;;13.50;10.40;;;3.50;99.90;;;;;;5109106;28;20434;-35
2022/11/19 10:33:40;;;;;;;13.83;10.00;;;3.60;99.90;;;;;;5100350;28;20444;-36
2022/11/19 10:36:34;;;;;;;12.53;9.43;;;3.60;99.90;;;;;;5104219;28;20911;-36
2022/11/19 10:39:08;;;;;;;15.20;10.10;;;3.60;99.90;;;;;;5111382;28;20475;-35
2022/11/19 10:42:11;;;;;;;14.77;10.67;;;3.60;99.90;;;;;;5112420;28;20444;-35
2022/11/19 10:44:42;;;;;;;15.50;10.73;;;3.90;99.90;;;;;;5111771;28;20556;-36
2022/11/19 10:47:12;;;;;;;13.33;10.43;;;3.90;99.90;;;;;;5112362;28;21049;-35
2022/11/19 10:49:40;;;;;;;14.13;9.23;;;3.70;99.90;;;;;;5111694;28;20493;-36
2022/11/19 10:52:38;;;;;;;15.40;10.63;;;4.00;99.90;;;;;;5111853;27;20407;-35
2022/11/19 10:55:18;;;;;;;14.33;10.27;;;4.10;99.90;;;;;;5108453;28;20776;-35
2022/11/19 10:57:46;;;;;;;14.90;11.20;;;4.20;99.90;;;;;;5112214;28;20508;-35
2022/11/19 11:00:12;;;;;;;12.60;9.33;;;4.00;99.90;;;;;;5110188;28;20410;-35
2022/11/19 11:02:52;;;;;;;14.10;10.63;;;4.10;99.90;;;;;;5111793;28;20432;-35
2022/11/19 11:05:18;;;;;;;12.17;9.27;;;4.30;99.90;;;;;;5111475;28;20492;-35
2022/11/19 11:07:51;;;;;;;12.20;9.10;;;4.30;99.90;;;;;;5111922;28;20478;-35
2022/11/19 11:10:41;;;;;;;12.80;9.90;;;4.30;99.90;;;;;;5111269;28;20421;-35
2022/11/19 11:16:02;;;;;;;12.97;9.77;;;4.40;99.90;;;;;;5111375;28;20410;-35
2022/11/19 11:18:30;;;;;;;16.47;10.83;;;4.20;99.90;;;;;;5111381;28;20405;-35
2022/11/19 11:20:56;;;;;;;13.20;10.07;;;4.20;99.90;;;;;;5111289;28;20414;-36
2022/11/19 11:23:29;;;;;;;11.50;8.90;;;4.30;99.90;;;;;;5110973;28;20410;-35
2022/11/19 11:26:04;;;;;;;11.10;9.10;;;4.30;99.90;;;;;;5091054;28;21181;-35
2022/11/19 11:28:29;;;;;;;11.27;9.20;;;4.10;99.90;;;;;;5090025;28;20441;-35
2022/11/19 11:31:08;;;;;;;13.60;9.87;;;4.30;99.90;;;;;;5091064;28;20454;-36
2022/11/19 11:33:38;;;;;;;11.67;9.20;;;4.20;99.90;;;;;;5087889;28;20920;-35
2022/11/19 11:36:14;;;;;;;13.70;10.43;;;4.10;99.90;;;;;;5090716;28;20407;-35
2022/11/19 11:38:46;;;;;;;14.30;8.73;;;4.00;99.90;;;;;;5089012;28;20438;-35
2022/11/19 11:41:30;;;;;;;10.53;8.63;;;3.80;99.90;;;;;;5090630;28;20394;-35
2022/11/19 11:44:00;;;;;;;13.57;10.90;;;4.00;99.90;;;;;;5090337;28;20509;-35
2022/11/19 11:46:49;;;;;;;13.20;9.80;;;4.10;99.90;;;;;;5090578;28;20427;-35
2022/11/19 11:49:36;;;;;;;14.90;10.37;;;4.00;99.90;;;;;;5089172;28;20509;-35
2022/11/19 11:52:10;;;;;;;12.33;9.67;;;4.20;99.90;;;;;;5089454;28;20505;-36
2022/11/19 11:54:37;;;;;;;12.30;9.77;;;4.20;99.90;;;;;;5089913;28;20426;-35
2022/11/19 11:57:15;;;;;;;10.80;9.23;;;4.10;99.90;;;;;;5090468;28;21026;-35
2022/11/19 11:59:41;;;;;;;12.73;9.90;;;4.00;99.90;;;;;;5089766;28;20414;-35
2022/11/19 12:02:21;;;;;;;10.47;8.80;;;4.00;99.90;;;;;;5090388;28;20771;-35
2022/11/19 12:04:49;;;;;;;12.87;9.17;;;4.20;99.90;;;;;;5090014;28;20297;-35
2022/11/19 12:07:45;;;;;;;14.83;9.70;;;4.30;99.90;;;;;;5098700;28;20548;-34
2022/11/19 12:10:21;;;;;;;11.97;8.87;;;4.30;99.90;;;;;;5101448;28;21164;-35
2022/11/19 12:13:02;;;;;;;12.70;8.77;;;4.50;99.90;;;;;;5110201;27;20803;-35
2022/11/19 12:15:46;;;;;;;25.60;10.10;;;4.70;99.90;;;;;;5110444;28;20437;-35
2022/11/19 12:18:29;;;;;;;11.30;8.47;;;4.90;99.90;;;;;;5110338;27;20409;-35
2022/11/19 12:21:20;;;;;;;12.73;9.30;;;4.60;99.90;;;;;;5110338;28;20416;-35
2022/11/19 12:24:05;;;;;;;11.60;8.87;;;4.80;99.90;;;;;;5110087;28;20457;-35
2022/11/19 12:26:36;;;;;;;14.97;8.83;;;4.80;99.90;;;;;;5110189;28;20513;-35
2022/11/19 12:29:11;;;;;;;17.73;8.87;;;4.80;99.90;;;;;;5110071;28;20435;-35
2022/11/19 12:31:47;;;;;;;19.13;9.93;;;5.00;99.90;;;;;;5110364;28;20801;-35
2022/11/19 12:34:39;;;;;;;11.73;9.40;;;4.70;99.90;;;;;;5108653;28;20417;-35
2022/11/19 12:37:26;;;;;;;37.87;10.90;;;4.70;99.90;;;;;;5110078;28;20780;-35
2022/11/19 12:40:03;;;;;;;20.70;9.23;;;4.90;99.90;;;;;;5109274;28;20416;-34
2022/11/19 12:42:44;;;;;;;16.30;9.50;;;5.00;99.90;;;;;;5109865;28;20405;-35
2022/11/19 12:45:21;;;;;;;12.87;9.80;;;5.00;99.90;;;;;;5109986;28;20441;-35
2022/11/19 12:48:06;;;;;;;20.73;9.30;;;5.10;99.90;;;;;;5104724;28;20495;-35
2022/11/19 12:50:46;;;;;;;12.43;9.27;;;5.10;99.90;;;;;;5106364;28;20892;-35
2022/11/19 12:53:40;;;;;;;10.97;8.90;;;4.90;99.90;;;;;;5109470;28;20412;-35
2022/11/19 12:56:49;;;;;;;11.40;8.87;;;4.70;99.90;;;;;;5109679;28;20421;-35
2022/11/19 12:59:33;;;;;;;13.37;9.97;;;4.60;99.90;;;;;;5109570;28;20414;-35
2022/11/19 13:02:01;;;;;;;11.80;9.27;;;4.70;99.90;;;;;;5109692;28;20433;-35
2022/11/19 13:04:36;;;;;;;12.73;9.60;;;4.60;99.90;;;;;;5109409;28;20458;-35
2022/11/19 13:07:07;;;;;;;12.63;9.53;;;4.60;99.90;;;;;;5109975;28;20844;-35
2022/11/19 13:09:50;;;;;;;13.50;8.90;;;4.70;99.90;;;;;;5109387;28;20416;-35
2022/11/19 13:12:41;;;;;;;11.67;8.40;;;4.50;99.90;;;;;;5105759;28;20967;-35
2022/11/19 13:15:16;;;;;;;13.27;9.70;;;4.50;99.90;;;;;;5104678;28;20437;-35
2022/11/19 13:17:47;;;;;;;11.50;8.97;;;4.70;99.90;;;;;;5109770;28;20405;-35
2022/11/19 13:20:22;;;;;;;12.27;9.90;;;4.40;99.90;;;;;;5109294;28;20446;-36